createdAt,value
2022-10-25T00:01:28.594Z,94963.84
2022-10-25T00:03:57.375Z,94978.09
2022-10-25T00:06:25.502Z,94973.50
2022-10-25T00:08:53.459Z,94988.91
2022-10-25T00:11:23.675Z,94978.06
2022-10-25T00:13:54.166Z,94960.44
2022-10-25T00:16:23.983Z,94975.81
2022-10-25T00:18:52.710Z,94978.59
2022-10-25T00:21:21.191Z,94979.31
2022-10-25T00:23:49.079Z,94976.59
2022-10-25T00:26:16.947Z,94972.72
2022-10-25T00:28:45.033Z,94974.69
2022-10-25T00:31:16.393Z,94982.13
2022-10-25T00:33:45.664Z,94964.56
2022-10-25T00:36:15.072Z,94976.88
2022-10-25T00:38:44.105Z,94959.81
2022-10-25T00:41:12.652Z,94955.00
2022-10-25T00:43:42.347Z,94952.41
2022-10-25T00:46:20.360Z,94953.56
2022-10-25T00:48:54.638Z,94946.28
2022-10-25T00:51:25.060Z,94940.06
2022-10-25T00:53:53.369Z,94934.22
2022-10-25T00:56:26.016Z,94926.44
2022-10-25T00:58:57.073Z,94921.53
2022-10-25T01:01:27.196Z,94934.16
2022-10-25T01:03:57.657Z,94923.84
2022-10-25T01:06:32.562Z,94927.28
2022-10-25T01:09:02.586Z,94932.50
2022-10-25T01:11:30.514Z,94922.88
2022-10-25T01:13:59.024Z,94927.38
2022-10-25T01:16:35.608Z,94919.97
2022-10-25T01:19:21.988Z,94913.69
2022-10-25T01:21:52.411Z,94910.09
2022-10-25T01:24:49.530Z,94931.56
2022-10-25T01:27:37.998Z,94891.63
2022-10-25T01:30:13.754Z,94926.53
2022-10-25T01:33:03.087Z,94927.22
2022-10-25T01:35:33.404Z,94924.16
2022-10-25T01:38:12.478Z,94916.34
2022-10-25T01:40:49.277Z,94919.00
2022-10-25T01:43:28.996Z,94912.22
2022-10-25T01:46:03.255Z,94919.47
2022-10-25T01:48:37.001Z,94915.50
2022-10-25T01:51:12.271Z,94910.56
2022-10-25T01:53:48.479Z,94915.84
2022-10-25T01:56:23.263Z,94896.81
2022-10-25T01:59:11.131Z,94911.06
2022-10-25T02:01:52.182Z,94908.44
2022-10-25T02:04:33.555Z,94911.53
2022-10-25T02:07:07.897Z,94915.41
2022-10-25T02:09:43.528Z,94915.56
2022-10-25T02:12:17.176Z,94909.38
2022-10-25T02:14:53.273Z,94910.34
2022-10-25T02:17:24.640Z,94904.63
2022-10-25T02:19:58.416Z,94897.69
2022-10-25T02:22:30.086Z,94880.97
2022-10-25T02:24:59.302Z,94896.31
2022-10-25T02:27:29.385Z,94873.44
2022-10-25T02:29:58.279Z,94892.44
2022-10-25T02:32:26.721Z,94891.97
2022-10-25T02:34:56.175Z,94897.59
2022-10-25T02:37:24.287Z,94878.97
2022-10-25T02:39:52.802Z,94898.41
2022-10-25T02:42:20.691Z,94897.47
2022-10-25T02:44:48.732Z,94895.53
2022-10-25T02:47:16.719Z,94896.69
2022-10-25T02:49:44.765Z,94890.28
2022-10-25T02:52:14.197Z,94886.53
2022-10-25T02:54:42.226Z,94896.56
2022-10-25T02:57:10.358Z,94889.25
2022-10-25T02:59:38.368Z,94876.00
2022-10-25T03:02:06.441Z,94893.06
2022-10-25T03:04:34.403Z,94881.41
2022-10-25T03:07:02.335Z,94857.56
2022-10-25T03:09:31.642Z,94875.69
2022-10-25T03:11:59.539Z,94887.19
2022-10-25T03:14:27.397Z,94870.38
2022-10-25T03:16:55.294Z,94863.84
2022-10-25T03:19:23.190Z,94860.94
2022-10-25T03:21:51.202Z,94881.41
2022-10-25T03:24:20.036Z,94862.81
2022-10-25T03:26:49.539Z,94869.28
2022-10-25T03:29:17.602Z,94889.25
2022-10-25T03:31:45.607Z,94871.75
2022-10-25T03:34:13.693Z,94852.00
2022-10-25T03:36:41.914Z,94886.72
2022-10-25T03:39:09.909Z,94885.44
2022-10-25T03:41:37.819Z,94860.41
2022-10-25T03:44:07.258Z,94868.88
2022-10-25T03:46:35.162Z,94861.91
2022-10-25T03:49:03.199Z,94874.88
2022-10-25T03:51:31.293Z,94870.81
2022-10-25T03:53:59.332Z,94850.84
2022-10-25T03:56:27.486Z,94854.75
2022-10-25T03:58:55.525Z,94847.44
2022-10-25T04:01:26.072Z,94836.41
2022-10-25T04:03:54.098Z,94851.34
2022-10-25T04:06:22.508Z,94849.72
2022-10-25T04:08:50.916Z,94839.78
2022-10-25T04:11:18.953Z,94860.75
2022-10-25T04:13:47.723Z,94870.50
2022-10-25T04:16:22.246Z,94837.84
2022-10-25T04:18:55.353Z,94865.59
2022-10-25T04:21:23.611Z,94840.13
2022-10-25T04:23:52.699Z,94855.88
2022-10-25T04:26:21.364Z,94840.94
2022-10-25T04:28:52.261Z,94860.56
2022-10-25T04:31:20.866Z,94847.59
2022-10-25T04:33:50.699Z,94869.88
2022-10-25T04:36:21.518Z,94857.34
2022-10-25T04:38:50.772Z,94889.66
2022-10-25T04:41:21.516Z,94865.28
2022-10-25T04:43:52.451Z,94859.78
2022-10-25T04:46:21.203Z,94874.84
2022-10-25T04:48:49.905Z,94851.78
2022-10-25T04:51:21.032Z,94843.53
2022-10-25T04:53:49.405Z,94882.50
2022-10-25T04:56:17.643Z,94889.94
2022-10-25T04:58:46.147Z,94877.78
2022-10-25T14:19:08.894Z,94718.19
2022-10-25T14:30:51.118Z,94712.75
2022-10-25T14:53:18.954Z,94687.00
2022-10-25T15:19:46.657Z,94652.59
2022-10-25T16:45:32.161Z,94768.59
2022-10-25T16:57:20.449Z,94781.19
2022-10-25T17:03:03.483Z,94754.16
2022-10-25T17:08:29.631Z,94766.41
2022-10-25T17:10:58.847Z,94749.34
2022-10-25T17:13:45.835Z,94756.31
2022-10-25T17:16:32.048Z,94744.88
2022-10-25T17:19:00.508Z,94758.09
2022-10-25T17:21:31.581Z,94766.91
2022-10-25T17:24:14.782Z,94766.75
2022-10-25T17:29:40.672Z,94778.28
2022-10-25T17:32:11.306Z,94740.84
2022-10-25T17:34:40.382Z,94778.78
2022-10-25T17:40:05.878Z,94775.41
2022-10-25T17:42:35.541Z,94777.25
2022-10-25T17:45:18.286Z,94774.78
2022-10-25T17:47:51.412Z,94778.94
2022-10-25T17:50:23.249Z,94773.00
2022-10-25T18:11:08.157Z,94794.75
2022-10-25T18:13:42.703Z,94812.94
2022-10-25T18:16:26.062Z,94797.06
2022-10-25T18:19:07.411Z,94804.97
2022-10-25T18:37:19.005Z,94831.88
2022-10-25T19:08:11.477Z,94826.50
2022-10-25T19:13:51.600Z,94830.06
2022-10-25T19:16:35.629Z,94819.75
2022-10-25T19:25:20.182Z,94835.63
2022-10-25T19:34:03.424Z,94844.59
2022-10-25T19:39:43.053Z,94856.94
2022-10-25T19:59:44.686Z,94882.00
2022-10-25T20:02:25.206Z,94881.19
2022-10-25T20:07:52.919Z,94897.03
2022-10-25T20:10:35.601Z,94862.16
2022-10-25T20:16:44.317Z,94910.09
2022-10-25T20:19:16.294Z,94905.88
2022-10-25T20:21:52.930Z,94897.84
2022-10-25T20:24:43.582Z,94894.44
2022-10-25T20:57:08.027Z,94934.19
2022-10-25T20:59:53.964Z,94908.94
2022-10-25T21:02:44.622Z,94923.88
2022-10-25T21:14:12.360Z,94920.44
2022-10-25T21:17:05.454Z,94922.06
2022-10-25T21:31:28.718Z,94922.91
2022-10-25T21:45:01.349Z,94921.47
2022-10-25T21:47:38.888Z,94918.84
2022-10-25T21:59:16.293Z,94929.16
2022-10-25T22:07:40.462Z,94934.78
2022-10-25T22:10:09.000Z,94922.66
2022-10-25T22:12:37.347Z,94946.66
2022-10-25T22:15:06.032Z,94929.06
2022-10-25T22:17:34.404Z,94940.19
2022-10-25T22:20:04.167Z,94950.28
2022-10-25T22:22:32.261Z,94953.91
2022-10-25T22:25:00.315Z,94954.50
2022-10-25T22:27:28.307Z,94923.31
2022-10-25T22:29:56.472Z,94912.66
2022-10-25T22:32:24.973Z,94926.78
2022-10-25T22:34:53.154Z,94946.78
2022-10-25T22:37:22.607Z,94930.16
2022-10-25T22:39:50.586Z,94925.34
2022-10-25T22:42:18.549Z,94917.88
2022-10-25T22:44:46.595Z,94942.16
2022-10-25T22:47:14.661Z,94945.19
2022-10-25T22:49:42.709Z,94951.88
2022-10-25T22:52:11.511Z,94937.34
2022-10-25T22:54:40.902Z,94926.56
2022-10-25T22:57:09.053Z,94949.25
2022-10-25T22:59:37.070Z,94965.97
2022-10-25T23:02:05.113Z,94953.69
2022-10-25T23:04:33.506Z,94958.13
2022-10-25T23:07:01.520Z,94946.19
2022-10-25T23:09:29.667Z,94957.50
2022-10-25T23:30:54.463Z,94989.34
2022-10-25T23:33:22.365Z,94985.28
2022-10-25T23:35:50.238Z,94982.84
2022-10-25T23:38:18.109Z,94990.09
2022-10-25T23:40:46.980Z,94986.88
2022-10-25T23:43:14.820Z,94987.63
2022-10-25T23:45:43.317Z,94994.31
2022-10-25T23:48:12.599Z,94997.94
2022-10-25T23:50:40.478Z,95003.34
2022-10-25T23:53:08.618Z,95006.19
2022-10-25T23:55:38.609Z,95012.41
2022-10-25T23:58:06.648Z,95003.13
